Purdue University Airport
KLAF : now visible

Airfield :











YOU CAN JOIN US ON...

 
LOGIN :

Register | Disclaimer

   EN    FR    IT 

 









Legend :    VFR   Marginal VFR   IFR   Intensive IFR   Very Intensive IFR
Visi :
Ceiling :
>= 8 km
>= 3000ft
5 to 8 km
1000 to 3000 ft
1500m to 5 km
500 to 1000 ft
800 to 1500m
200 to 500 ft
< 800m
< 200 ft
Symbols :   Thunderstorms  Fog  Heavy snow  Heavy precipitations  Wind > 20 kt






- Airport Elevation : 606 ft
- IATA code : LAF


KLAF - Purdue University

CURRENT METAR :
  • 211854Z 34019G29KT 10SM FEW029 BKN055 BKN070 09/M03 A3011 RMK AO2 PK WND 34029/1852 SLP199 T00891033

EXPIRED METARs :
  • 211754Z 00000KT 10SM SCT021 SCT043 BKN050 07/01 A3012 RMK AO2 RAB24E53 SLP204 P0001 60001 T00670011 10083 20017 58012
  • 211722Z 23008KT 10SM FEW017 SCT022 BKN048 08/01 A3013 RMK AO2 T00780006
  • 211654Z 20007KT 160V230 10SM SCT013 SCT019 BKN024 08/02 A3015 RMK AO2 SLP212 T00780017

TAF KLAF
Valid from the 21 at 18:00 until the 22 at 18:00 UTC


211731Z 2118/2218 29010KT P6SM VCSH SCT020 BKN030
FM211900 29012G20KT P6SM VCSH SCT045
FM212000 29013KT P6SM VCSH SCT070
FM212100 29013G21KT P6SM VCSH SCT060
FM212200 29012KT P6SM VCSH SCT080
FM220000 30009KT P6SM SCT100
KZAU FIR / North America



MET'MAP, your aeronautical weather chart ! - Copyright ORBIFLY December 2007 - Disclaimer

ORBIFLY MET'MAP TEAM :

Programming & Development : Alexandra Zaïnal
Concept & original design : Baudouin d'Aumeries
Assistance for programming : Marc-Olivier Méhu
Technical & hardware support : Manuel Goepfert

Contact : metmap@orbifly.com




SOURCES & CREDITS :

   NOAA       Earth
Advisory